createdAt,value
2018-03-01T00:01:26.829Z,48.55
2018-03-01T00:03:55.919Z,48.75
2018-03-01T00:06:26.831Z,48.67
2018-03-01T00:08:54.348Z,48.64
2018-03-01T00:11:25.274Z,48.71
2018-03-01T00:13:52.742Z,48.78
2018-03-01T00:16:20.260Z,49.09
2018-03-01T00:18:47.793Z,48.98
2018-03-01T00:21:19.952Z,49.09
2018-03-01T00:23:48.587Z,49.21
2018-03-01T00:26:16.766Z,49.10
2018-03-01T00:28:44.798Z,49.43
2018-03-01T00:31:13.315Z,49.29
2018-03-01T00:33:40.748Z,49.19
2018-03-01T00:36:08.230Z,49.10
2018-03-01T00:38:36.575Z,49.28
2018-03-01T00:41:04.445Z,49.54
2018-03-01T00:43:31.917Z,49.37
2018-03-01T00:45:59.398Z,49.85
2018-03-01T00:48:27.357Z,50.08
2018-03-01T00:50:54.818Z,50.08
2018-03-01T00:53:22.290Z,50.28
2018-03-01T00:55:50.751Z,50.29
2018-03-01T00:58:18.268Z,50.68
2018-03-01T01:00:45.864Z,50.63
2018-03-01T01:03:13.426Z,50.55
2018-03-01T01:05:41.079Z,50.81
2018-03-01T01:08:08.833Z,50.57
2018-03-01T01:10:36.393Z,50.76
2018-03-01T01:13:03.927Z,51.05
2018-03-01T01:15:31.409Z,50.96
2018-03-01T01:17:58.860Z,50.99
2018-03-01T01:20:26.336Z,51.25
2018-03-01T01:22:54.735Z,51.78
2018-03-01T01:25:22.705Z,51.61
2018-03-01T01:27:50.290Z,51.90
2018-03-01T01:30:17.950Z,51.96
2018-03-01T01:32:45.465Z,51.82
2018-03-01T01:35:13.753Z,51.90
2018-03-01T01:37:41.258Z,51.94
2018-03-01T01:40:08.724Z,51.70
2018-03-01T01:42:36.180Z,51.63
2018-03-01T01:45:03.683Z,51.69
2018-03-01T01:47:31.154Z,51.85
2018-03-01T01:49:58.632Z,52.47
2018-03-01T01:52:26.070Z,52.46
2018-03-01T01:54:53.627Z,52.36
2018-03-01T01:57:21.091Z,52.35
2018-03-01T01:59:48.629Z,52.44
2018-03-01T02:02:16.082Z,52.38
2018-03-01T02:04:43.583Z,52.35
2018-03-01T02:07:11.072Z,52.61
2018-03-01T02:09:38.565Z,52.12
2018-03-01T02:12:06.058Z,52.07
2018-03-01T02:14:34.091Z,52.08
2018-03-01T02:17:01.570Z,52.09
2018-03-01T02:19:29.518Z,52.03
2018-03-01T02:21:57.045Z,52.04
2018-03-01T02:24:24.544Z,52.29
2018-03-01T02:26:52.021Z,52.22
2018-03-01T02:29:19.496Z,52.22
2018-03-01T02:31:46.960Z,52.41
2018-03-01T02:34:14.480Z,52.83
2018-03-01T02:36:42.882Z,52.98
2018-03-01T02:39:10.367Z,53.22
2018-03-01T02:41:37.969Z,52.98
2018-03-01T02:44:05.598Z,53.07
2018-03-01T02:46:33.207Z,53.35
2018-03-01T02:49:00.844Z,53.30
2018-03-01T02:51:28.286Z,53.45
2018-03-01T02:53:55.906Z,53.32
2018-03-01T02:56:23.375Z,53.21
2018-03-01T02:58:50.920Z,53.18
2018-03-01T03:01:19.149Z,53.39
2018-03-01T03:03:46.637Z,53.17
2018-03-01T03:06:15.018Z,53.10
2018-03-01T03:08:42.665Z,53.32
2018-03-01T03:11:10.134Z,53.19
2018-03-01T03:13:37.588Z,53.52
2018-03-01T03:16:05.064Z,53.48
2018-03-01T03:18:33.254Z,53.28
2018-03-01T03:21:00.734Z,53.44
2018-03-01T03:23:28.220Z,53.63
2018-03-01T03:25:56.073Z,53.88
2018-03-01T03:28:23.831Z,53.50
2018-03-01T03:30:51.294Z,53.65
2018-03-01T03:33:18.748Z,53.75
2018-03-01T03:35:46.237Z,54.10
2018-03-01T03:38:13.755Z,54.17
2018-03-01T03:40:41.271Z,54.08
2018-03-01T03:43:08.869Z,54.25
2018-03-01T03:45:36.365Z,54.22
2018-03-01T03:48:03.916Z,53.99
2018-03-01T03:50:31.365Z,53.91
2018-03-01T03:52:58.898Z,53.98
2018-03-01T03:55:26.383Z,53.75
2018-03-01T03:57:54.128Z,53.57
2018-03-01T04:00:21.610Z,53.83
2018-03-01T04:02:49.450Z,53.89
2018-03-01T04:05:16.914Z,53.84
2018-03-01T04:07:44.462Z,53.84
2018-03-01T04:10:12.394Z,53.92
2018-03-01T04:12:39.864Z,54.07
2018-03-01T04:15:07.404Z,53.86
2018-03-01T04:17:34.921Z,53.86
2018-03-01T04:20:03.337Z,53.71
2018-03-01T04:22:30.827Z,53.48
2018-03-01T04:24:58.297Z,53.47
2018-03-01T04:27:25.790Z,53.55
2018-03-01T04:29:53.271Z,53.55
2018-03-01T04:32:20.769Z,53.63
2018-03-01T04:34:48.221Z,53.70
2018-03-01T04:37:15.685Z,53.44
2018-03-01T04:39:43.649Z,53.46
2018-03-01T04:42:11.188Z,53.72
2018-03-01T04:44:38.659Z,53.07
2018-03-01T04:47:06.100Z,53.39
2018-03-01T04:49:33.655Z,53.39
2018-03-01T04:52:01.198Z,53.25
2018-03-01T04:54:28.720Z,53.28
2018-03-01T04:56:56.160Z,53.48
2018-03-01T04:59:24.268Z,53.09
2018-03-01T05:01:51.747Z,53.10
2018-03-01T05:04:19.212Z,53.32
2018-03-01T05:06:46.689Z,53.19
2018-03-01T05:09:14.136Z,53.08
2018-03-01T05:11:41.603Z,53.04
2018-03-01T05:14:09.047Z,53.24
2018-03-01T05:16:36.580Z,53.16
2018-03-01T05:19:04.033Z,52.81
2018-03-01T05:21:31.496Z,52.70
2018-03-01T05:23:58.983Z,52.41
2018-03-01T05:26:26.548Z,52.33
2018-03-01T05:28:53.999Z,52.31
2018-03-01T05:31:21.513Z,52.02
2018-03-01T05:33:49.153Z,52.03
2018-03-01T05:36:16.706Z,52.56
2018-03-01T05:38:44.279Z,52.64
2018-03-01T05:41:11.752Z,53.00
2018-03-01T05:43:39.259Z,52.95
2018-03-01T05:46:06.743Z,52.99
2018-03-01T05:48:34.203Z,53.02
2018-03-01T05:51:01.994Z,53.39
2018-03-01T05:53:29.486Z,53.33
2018-03-01T05:55:56.951Z,53.47
2018-03-01T05:58:24.453Z,53.70
2018-03-01T06:00:51.889Z,53.54
2018-03-01T06:03:19.483Z,53.80
2018-03-01T06:05:47.069Z,53.57
2018-03-01T06:08:14.579Z,53.46
2018-03-01T06:10:42.018Z,53.55
2018-03-01T06:13:09.459Z,53.45
2018-03-01T06:15:36.933Z,53.37
2018-03-01T06:18:04.365Z,53.58
2018-03-01T06:20:31.845Z,53.65
2018-03-01T06:22:59.370Z,53.58
2018-03-01T06:25:26.853Z,53.75
2018-03-01T06:27:54.390Z,53.89
2018-03-01T06:30:21.907Z,53.90
2018-03-01T06:32:49.359Z,53.26
2018-03-01T06:35:16.823Z,52.94
2018-03-01T06:37:44.279Z,52.76
2018-03-01T06:40:11.749Z,52.68
2018-03-01T06:42:39.218Z,52.81
2018-03-01T06:45:06.746Z,53.01
2018-03-01T06:47:34.322Z,53.08
2018-03-01T06:50:01.856Z,52.84
2018-03-01T06:52:29.344Z,52.86
2018-03-01T06:54:56.810Z,52.72
2018-03-01T06:57:24.311Z,52.56
2018-03-01T06:59:51.751Z,52.31
2018-03-01T07:02:19.245Z,52.44
2018-03-01T07:04:46.687Z,52.73
2018-03-01T07:07:14.153Z,52.64
2018-03-01T07:09:41.616Z,52.42
2018-03-01T07:12:09.078Z,52.28
2018-03-01T07:14:36.557Z,52.09
2018-03-01T07:17:04.027Z,52.22
2018-03-01T07:19:31.523Z,52.40
2018-03-01T07:21:58.951Z,52.39
2018-03-01T07:24:26.395Z,52.46
2018-03-01T07:26:53.853Z,52.52
2018-03-01T07:29:21.302Z,52.40
2018-03-01T07:31:48.865Z,52.03
2018-03-01T07:34:16.340Z,51.63
2018-03-01T07:36:43.794Z,51.49
2018-03-01T07:39:11.264Z,51.03
2018-03-01T07:41:38.726Z,50.53
2018-03-01T07:44:06.214Z,50.11
2018-03-01T07:46:33.675Z,50.21
2018-03-01T07:49:01.191Z,50.04
2018-03-01T07:51:28.711Z,49.57
2018-03-01T07:53:56.207Z,49.14
2018-03-01T07:56:23.632Z,48.99
2018-03-01T07:58:51.139Z,49.32
2018-03-01T08:01:18.603Z,49.63
2018-03-01T08:03:46.064Z,49.40
2018-03-01T08:06:13.504Z,49.62
2018-03-01T08:08:40.984Z,49.47
2018-03-01T08:11:08.470Z,49.23
2018-03-01T08:13:35.910Z,48.45
2018-03-01T08:16:03.392Z,47.96
2018-03-01T08:18:31.430Z,47.71
2018-03-01T08:20:58.906Z,47.40
2018-03-01T08:23:26.351Z,47.29
2018-03-01T08:25:53.841Z,47.22
2018-03-01T08:28:21.497Z,46.91
2018-03-01T08:30:49.034Z,47.17
2018-03-01T08:33:16.663Z,46.46
2018-03-01T08:35:44.259Z,46.63
2018-03-01T08:38:11.843Z,47.02
2018-03-01T08:40:39.434Z,46.95
2018-03-01T08:43:07.064Z,46.54
2018-03-01T08:45:34.526Z,46.50
2018-03-01T08:48:01.994Z,46.97
2018-03-01T08:50:29.455Z,46.33
2018-03-01T08:52:56.998Z,46.46
2018-03-01T08:55:24.430Z,46.16
2018-03-01T08:57:51.906Z,46.21
2018-03-01T09:00:19.487Z,46.25
2018-03-01T09:02:47.065Z,46.14
2018-03-01T09:05:14.542Z,46.72
2018-03-01T09:07:42.039Z,46.51
2018-03-01T09:10:09.536Z,45.83
2018-03-01T09:12:36.969Z,45.76
2018-03-01T09:15:04.411Z,45.25
2018-03-01T09:17:31.944Z,44.98
2018-03-01T09:19:59.467Z,44.89
2018-03-01T09:22:27.488Z,45.36
2018-03-01T09:24:55.054Z,45.38
2018-03-01T09:27:22.628Z,44.78
2018-03-01T09:29:50.161Z,44.71
2018-03-01T09:32:17.761Z,45.04
2018-03-01T09:34:45.360Z,45.39
2018-03-01T09:37:12.922Z,44.67
2018-03-01T09:39:40.355Z,44.50
2018-03-01T09:42:07.805Z,43.90
2018-03-01T09:44:35.288Z,43.19
2018-03-01T09:47:02.739Z,42.74
2018-03-01T09:49:30.198Z,41.85
2018-03-01T09:51:57.651Z,40.99
2018-03-01T09:54:25.214Z,40.41
2018-03-01T09:56:52.718Z,39.29
2018-03-01T09:59:20.290Z,36.67
2018-03-01T10:01:48.151Z,35.94
2018-03-01T10:04:15.643Z,36.74
2018-03-01T10:06:43.105Z,35.56
2018-03-01T10:09:10.547Z,36.35
2018-03-01T10:11:37.992Z,36.83
2018-03-01T10:14:05.453Z,37.61
2018-03-01T10:16:32.880Z,39.00
2018-03-01T10:19:00.337Z,39.20
2018-03-01T10:21:27.842Z,39.32
2018-03-01T10:23:55.329Z,38.26
2018-03-01T10:26:22.835Z,37.72
2018-03-01T10:28:50.292Z,37.37
2018-03-01T10:31:18.429Z,36.50
2018-03-01T10:33:46.878Z,36.35
2018-03-01T10:36:14.367Z,35.77
2018-03-01T10:38:41.964Z,35.53
2018-03-01T10:41:09.517Z,34.84
2018-03-01T10:43:36.979Z,33.00
2018-03-01T10:46:04.460Z,30.34
2018-03-01T10:48:31.904Z,27.98
2018-03-01T10:50:59.401Z,28.96
2018-03-01T10:53:30.963Z,28.81
2018-03-01T10:55:58.461Z,29.60
2018-03-01T10:58:26.071Z,30.30
2018-03-01T11:00:59.555Z,27.95
2018-03-01T11:03:27.251Z,27.04
2018-03-01T11:05:54.720Z,26.53
2018-03-01T11:08:22.625Z,25.19
2018-03-01T11:10:50.196Z,24.57
2018-03-01T11:13:17.824Z,24.29
2018-03-01T11:15:45.362Z,24.25
2018-03-01T11:18:12.877Z,24.32
2018-03-01T11:20:40.312Z,23.83
2018-03-01T11:23:07.764Z,24.35
2018-03-01T11:25:35.226Z,24.51
2018-03-01T11:28:02.668Z,22.99
2018-03-01T11:30:30.385Z,21.61
2018-03-01T11:32:57.822Z,20.90
2018-03-01T11:35:25.653Z,20.74
2018-03-01T11:37:53.075Z,20.70
2018-03-01T11:40:20.544Z,21.06
2018-03-01T11:42:48.037Z,20.12
2018-03-01T11:45:15.521Z,19.22
2018-03-01T11:47:42.991Z,19.75
2018-03-01T11:50:10.520Z,19.65
2018-03-01T11:52:38.094Z,19.64
2018-03-01T11:55:05.558Z,19.97
2018-03-01T11:57:33.023Z,19.29
2018-03-01T12:00:00.504Z,20.24
2018-03-01T12:02:27.990Z,19.12
2018-03-01T12:04:55.551Z,19.69
2018-03-01T12:07:23.148Z,20.48
2018-03-01T12:09:50.629Z,21.70
2018-03-01T12:12:18.342Z,22.23
2018-03-01T12:14:45.855Z,22.37
2018-03-01T12:17:13.368Z,23.14
2018-03-01T12:19:40.834Z,24.05
2018-03-01T12:22:08.402Z,24.60
2018-03-01T12:24:35.968Z,25.42
2018-03-01T12:27:03.497Z,24.49
2018-03-01T12:29:30.926Z,24.17
2018-03-01T12:31:58.386Z,25.23
2018-03-01T12:34:25.854Z,26.26
2018-03-01T12:36:53.293Z,26.31
2018-03-01T12:39:21.052Z,26.58
2018-03-01T12:41:48.527Z,27.44
2018-03-01T12:44:15.989Z,28.01
2018-03-01T12:46:43.451Z,28.38
2018-03-01T12:49:10.993Z,28.72
2018-03-01T12:51:38.771Z,28.71
2018-03-01T12:54:06.211Z,28.26
2018-03-01T12:56:33.862Z,28.33
2018-03-01T12:59:01.323Z,28.26
2018-03-01T13:01:28.812Z,28.38
2018-03-01T13:03:56.277Z,28.61
2018-03-01T13:06:23.803Z,28.26
2018-03-01T13:08:51.268Z,28.33
2018-03-01T13:11:18.760Z,28.43
2018-03-01T13:13:46.232Z,28.89
2018-03-01T13:16:13.718Z,28.91
2018-03-01T13:18:41.264Z,29.05
2018-03-01T13:21:08.760Z,28.31
2018-03-01T13:23:36.629Z,28.12
2018-03-01T13:26:04.154Z,28.73
2018-03-01T13:28:31.624Z,28.53
2018-03-01T13:31:00.917Z,28.86
2018-03-01T13:33:28.687Z,29.37
2018-03-01T13:35:57.047Z,29.70
2018-03-01T13:38:24.565Z,29.52
2018-03-01T13:40:52.026Z,29.82
2018-03-01T13:43:22.516Z,30.00
2018-03-01T13:45:50.625Z,30.02
2018-03-01T13:48:18.336Z,30.09
2018-03-01T13:50:46.746Z,30.75
2018-03-01T13:53:14.271Z,31.36
2018-03-01T13:55:41.723Z,32.10
2018-03-01T13:58:09.291Z,32.17
2018-03-01T14:00:37.270Z,32.75
2018-03-01T14:03:04.735Z,32.64
2018-03-01T14:05:32.601Z,32.80
2018-03-01T14:08:00.054Z,32.82
2018-03-01T14:10:28.424Z,32.64
2018-03-01T14:12:59.796Z,32.68
2018-03-01T14:15:27.569Z,33.20
2018-03-01T14:18:01.575Z,33.62
2018-03-01T14:20:34.547Z,33.85
2018-03-01T14:26:08.614Z,34.14
2018-03-01T14:28:42.183Z,34.33
2018-03-01T14:31:09.736Z,34.11
2018-03-01T14:33:37.261Z,34.71
2018-03-01T14:36:04.814Z,35.37
2018-03-01T14:38:32.265Z,35.37
2018-03-01T14:41:00.092Z,35.11
2018-03-01T14:43:28.483Z,34.98
2018-03-01T14:45:56.048Z,35.76
2018-03-01T14:48:23.648Z,36.12
2018-03-01T14:50:51.177Z,36.65
2018-03-01T14:53:18.809Z,36.36
2018-03-01T14:55:46.403Z,36.38
2018-03-01T14:58:14.337Z,36.23
2018-03-01T15:00:41.853Z,36.78
2018-03-01T15:03:09.462Z,37.04
2018-03-01T15:05:36.968Z,37.19
2018-03-01T15:08:04.445Z,37.49
2018-03-01T15:10:31.921Z,37.79
2018-03-01T15:12:59.410Z,37.35
2018-03-01T15:15:26.884Z,37.11
2018-03-01T15:17:54.339Z,36.97
2018-03-01T15:20:22.503Z,36.89
2018-03-01T15:22:49.993Z,37.25
2018-03-01T15:25:17.526Z,37.46
2018-03-01T15:27:45.136Z,37.47
2018-03-01T15:30:12.651Z,37.83
2018-03-01T15:32:40.769Z,38.24
2018-03-01T15:35:08.830Z,38.47
2018-03-01T15:37:36.431Z,38.87
2018-03-01T15:40:04.575Z,39.13
2018-03-01T15:42:32.053Z,39.24
2018-03-01T15:45:01.259Z,38.65
2018-03-01T15:47:28.736Z,38.84
2018-03-01T15:49:56.292Z,39.05
2018-03-01T15:52:23.798Z,39.21
2018-03-01T15:54:51.285Z,39.45
2018-03-01T15:57:18.736Z,39.21
2018-03-01T15:59:46.283Z,39.65
2018-03-01T16:02:14.141Z,40.00
2018-03-01T16:04:41.774Z,40.30
2018-03-01T16:07:09.282Z,39.76
2018-03-01T16:09:37.241Z,39.65
2018-03-01T16:12:04.719Z,40.21
2018-03-01T16:14:32.237Z,40.33
2018-03-01T16:16:59.770Z,40.68
2018-03-01T16:19:27.230Z,40.84
2018-03-01T16:21:54.706Z,40.58
2018-03-01T16:24:23.133Z,40.56
2018-03-01T16:26:50.598Z,40.86
2018-03-01T16:29:18.072Z,41.21
2018-03-01T16:31:45.553Z,41.32
2018-03-01T16:34:13.104Z,41.92
2018-03-01T16:36:40.602Z,41.31
2018-03-01T16:39:08.057Z,41.46
2018-03-01T16:41:35.503Z,41.48
2018-03-01T16:44:03.017Z,41.79
2018-03-01T16:46:30.475Z,41.88
2018-03-01T16:48:57.971Z,41.39
2018-03-01T16:51:25.459Z,41.48
2018-03-01T16:53:52.905Z,41.45
2018-03-01T16:56:20.391Z,41.68
2018-03-01T16:58:48.058Z,41.35
2018-03-01T17:01:15.526Z,41.16
2018-03-01T17:03:43.138Z,40.91
2018-03-01T17:06:10.648Z,41.01
2018-03-01T17:08:38.127Z,40.97
2018-03-01T17:11:05.600Z,40.92
2018-03-01T17:13:33.115Z,40.87
2018-03-01T17:16:00.594Z,40.82
2018-03-01T17:18:28.077Z,40.99
2018-03-01T17:20:55.560Z,40.86
2018-03-01T17:23:23.017Z,40.64
2018-03-01T17:25:50.521Z,41.02
2018-03-01T17:28:18.224Z,40.95
2018-03-01T17:30:45.710Z,41.05
2018-03-01T17:33:13.267Z,41.45
2018-03-01T17:35:40.844Z,41.42
2018-03-01T17:38:08.374Z,42.01
2018-03-01T17:40:35.875Z,41.84
2018-03-01T17:43:03.420Z,41.45
2018-03-01T17:45:31.179Z,41.55
2018-03-01T17:47:58.665Z,41.07
2018-03-01T17:50:26.099Z,41.14
2018-03-01T17:52:53.587Z,41.07
2018-03-01T17:55:21.024Z,41.10
2018-03-01T17:57:48.483Z,41.61
2018-03-01T18:00:15.975Z,41.20
2018-03-01T18:02:43.439Z,41.02
2018-03-01T18:05:10.947Z,40.93
2018-03-01T18:07:38.460Z,41.53
2018-03-01T18:10:05.955Z,41.57
2018-03-01T18:12:33.669Z,41.97
2018-03-01T18:15:01.177Z,40.94
2018-03-01T18:17:28.698Z,41.18
2018-03-01T18:19:56.882Z,41.18
2018-03-01T18:22:24.376Z,40.64
2018-03-01T18:24:51.854Z,41.15
2018-03-01T18:27:19.771Z,41.00
2018-03-01T18:29:47.232Z,40.42
2018-03-01T18:32:15.284Z,39.99
2018-03-01T18:34:43.409Z,40.45
2018-03-01T18:37:10.964Z,40.43
2018-03-01T18:39:38.452Z,40.36
2018-03-01T18:42:07.380Z,40.21
2018-03-01T18:44:34.834Z,40.29
2018-03-01T18:47:02.323Z,40.68
2018-03-01T18:49:34.045Z,40.34
2018-03-01T18:52:02.139Z,40.61
2018-03-01T18:54:30.594Z,40.52
2018-03-01T18:56:59.621Z,40.70
2018-03-01T18:59:27.076Z,40.41
2018-03-01T19:01:56.033Z,40.69
2018-03-01T19:04:24.034Z,40.64
2018-03-01T19:06:52.244Z,40.58
2018-03-01T19:09:19.745Z,40.52
2018-03-01T19:11:47.289Z,40.92
2018-03-01T19:14:16.392Z,41.99
2018-03-01T19:16:43.853Z,41.75
2018-03-01T19:19:11.360Z,41.67
2018-03-01T19:21:38.867Z,41.72
2018-03-01T19:24:06.339Z,41.51
2018-03-01T19:26:33.892Z,41.90
2018-03-01T19:29:01.455Z,42.17
2018-03-01T19:31:29.886Z,42.22
2018-03-01T19:33:57.384Z,42.21
2018-03-01T19:36:24.856Z,42.86
2018-03-01T19:38:52.424Z,42.72
2018-03-01T19:41:19.898Z,42.35
2018-03-01T19:43:47.848Z,42.48
2018-03-01T19:46:15.515Z,42.87
2018-03-01T19:48:43.489Z,43.13
2018-03-01T19:51:11.443Z,43.18
2018-03-01T19:53:38.907Z,43.06
2018-03-01T19:56:06.419Z,43.40
2018-03-01T19:58:33.981Z,43.73
2018-03-01T20:01:01.986Z,43.99
2018-03-01T20:03:29.516Z,44.44
2018-03-01T20:05:57.112Z,43.73
2018-03-01T20:08:24.586Z,43.93
2018-03-01T20:10:52.171Z,43.50
2018-03-01T20:13:19.683Z,44.02
2018-03-01T20:15:47.143Z,44.33
2018-03-01T20:18:15.465Z,43.97
2018-03-01T20:20:43.052Z,43.77
2018-03-01T20:23:10.611Z,43.99
2018-03-01T20:25:38.292Z,44.12
2018-03-01T20:28:05.907Z,44.23
2018-03-01T20:30:33.385Z,44.17
2018-03-01T20:33:00.872Z,43.90
2018-03-01T20:35:28.389Z,43.87
2018-03-01T20:37:56.158Z,43.75
2018-03-01T20:40:23.660Z,43.23
2018-03-01T20:42:51.192Z,43.21
2018-03-01T20:45:18.690Z,42.93
2018-03-01T20:47:48.254Z,42.72
2018-03-01T20:50:16.454Z,42.62
2018-03-01T20:52:43.908Z,42.78
2018-03-01T20:55:11.455Z,43.10
2018-03-01T20:57:38.885Z,43.22
2018-03-01T21:00:06.393Z,43.54
2018-03-01T21:02:34.024Z,43.94
2018-03-01T21:05:01.569Z,43.68
2018-03-01T21:07:32.668Z,43.76
2018-03-01T21:10:00.210Z,44.23
2018-03-01T21:12:27.655Z,44.16
2018-03-01T21:14:55.153Z,44.12
2018-03-01T21:17:22.631Z,43.98
2018-03-01T21:19:50.093Z,43.86
2018-03-01T21:22:17.741Z,43.69
2018-03-01T21:24:45.274Z,44.01
2018-03-01T21:27:12.830Z,44.11
2018-03-01T21:29:40.384Z,44.36
2018-03-01T21:32:07.884Z,44.34
2018-03-01T21:34:35.447Z,44.13
2018-03-01T21:37:02.916Z,43.99
2018-03-01T21:39:30.401Z,44.00
2018-03-01T21:41:59.353Z,44.04
2018-03-01T21:44:28.682Z,43.96
2018-03-01T21:47:07.496Z,44.30
2018-03-01T21:49:35.127Z,44.57
2018-03-01T21:52:02.903Z,44.59
2018-03-01T21:54:30.385Z,44.75
2018-03-01T21:56:57.891Z,44.89
2018-03-01T21:59:25.351Z,45.03
2018-03-01T22:01:52.848Z,44.91
2018-03-01T22:04:20.390Z,45.00
2018-03-01T22:06:49.017Z,44.85
2018-03-01T22:09:16.784Z,44.85
2018-03-01T22:11:44.522Z,44.78
2018-03-01T22:14:11.986Z,44.72
2018-03-01T22:16:39.464Z,44.80
2018-03-01T22:19:06.956Z,44.73
2018-03-01T22:21:34.587Z,44.68
2018-03-01T22:24:02.168Z,44.83
2018-03-01T22:26:29.724Z,45.32
2018-03-01T22:28:57.849Z,45.73
2018-03-01T22:31:25.350Z,45.75
2018-03-01T22:33:52.875Z,45.73
2018-03-01T22:36:20.441Z,45.95
2018-03-01T22:38:47.912Z,46.12
2018-03-01T22:41:15.390Z,46.20
2018-03-01T22:43:42.872Z,46.15
2018-03-01T22:46:10.361Z,46.13
2018-03-01T22:48:37.823Z,46.16
2018-03-01T22:51:05.363Z,46.42
2018-03-01T22:53:32.869Z,46.49
2018-03-01T22:56:00.685Z,46.92
2018-03-01T22:58:28.219Z,47.19
2018-03-01T23:00:56.557Z,46.87
2018-03-01T23:03:24.032Z,46.76
2018-03-01T23:05:51.478Z,47.06
2018-03-01T23:08:18.955Z,47.04
2018-03-01T23:10:46.456Z,46.58
2018-03-01T23:13:13.930Z,46.47
2018-03-01T23:15:41.369Z,46.81
2018-03-01T23:18:08.873Z,46.51
2018-03-01T23:20:36.348Z,46.39
2018-03-01T23:23:05.150Z,46.34
2018-03-01T23:25:32.645Z,46.57
2018-03-01T23:28:00.108Z,46.67
2018-03-01T23:30:27.982Z,46.92
2018-03-01T23:32:55.522Z,46.75
2018-03-01T23:35:23.187Z,46.83
2018-03-01T23:37:50.640Z,46.94
2018-03-01T23:40:18.920Z,46.85
2018-03-01T23:42:46.937Z,47.06
2018-03-01T23:45:14.958Z,47.26
2018-03-01T23:47:42.451Z,47.42
2018-03-01T23:50:09.946Z,47.86
2018-03-01T23:52:38.314Z,48.12
2018-03-01T23:55:06.429Z,48.31
2018-03-01T23:57:34.193Z,48.63
